Time;durP1;ratioP1;P1;durP2;ratioP2;P2;SDS_P1;SDS_P2;PMS_P1;PMS_P2;Temp;Humidity;BMP_temperature;BMP_pressure;BME280_temperature;BME280_humidity;BME280_pressure;Samples;Min_cycle;Max_cycle;Signal;HPM_P1;HPM_P2
2023/06/29 00:01:14;;;;;;;;;;;;;;;15.34;100.00;95991.13;5031481;28;19960;-76
2023/06/29 00:03:41;;;;;;;;;;;;;;;15.40;100.00;95982.81;5025559;28;19929;-77
2023/06/29 00:06:07;;;;;;;;;;;;;;;15.41;100.00;95987.91;5032543;28;19929;-75
2023/06/29 00:08:35;;;;;;;;;;;;;;;15.49;100.00;95989.91;5025399;28;20430;-76
2023/06/29 00:11:02;;;;;;;;;;;;;;;15.51;100.00;95990.63;5024196;28;20017;-77
2023/06/29 00:13:28;;;;;;;;;;;;;;;15.38;100.00;95982.94;5031926;28;19925;-76
2023/06/29 00:15:56;;;;;;;;;;;;;;;15.29;100.00;95981.06;5030093;28;19929;-76
2023/06/29 00:18:23;;;;;;;;;;;;;;;15.18;100.00;95978.44;5033235;28;20379;-76
2023/06/29 00:20:51;;;;;;;;;;;;;;;15.09;100.00;95972.19;5033788;28;19925;-76
2023/06/29 00:23:17;;;;;;;;;;;;;;;15.13;100.00;95970.13;5028541;28;19936;-76
2023/06/29 00:25:47;;;;;;;;;;;;;;;15.20;100.00;95973.94;5029489;28;19932;-76
2023/06/29 00:28:13;;;;;;;;;;;;;;;15.28;100.00;95973.31;5033010;28;20391;-76
2023/06/29 00:30:39;;;;;;;;;;;;;;;15.22;100.00;95972.88;5029526;28;19932;-76
2023/06/29 00:33:07;;;;;;;;;;;;;;;15.13;100.00;95967.53;5026384;28;19929;-76
2023/06/29 00:35:33;;;;;;;;;;;;;;;15.16;100.00;95964.69;5025930;28;20261;-76
2023/06/29 00:37:59;;;;;;;;;;;;;;;15.21;100.00;95965.19;5026859;28;19934;-77
2023/06/29 00:40:26;;;;;;;;;;;;;;;15.13;100.00;95964.91;5023575;28;20299;-76
2023/06/29 00:42:55;;;;;;;;;;;;;;;15.05;100.00;95964.69;5021013;28;19976;-76
2023/06/29 00:45:21;;;;;;;;;;;;;;;14.97;100.00;95960.06;5024162;28;19931;-76
2023/06/29 00:47:47;;;;;;;;;;;;;;;14.94;100.00;95966.38;5029997;28;20339;-76
2023/06/29 00:50:16;;;;;;;;;;;;;;;14.97;100.00;95957.47;5031517;28;19925;-76
2023/06/29 00:52:43;;;;;;;;;;;;;;;15.01;100.00;95951.88;5031514;28;20036;-76
2023/06/29 00:55:09;;;;;;;;;;;;;;;15.05;100.00;95952.47;5020942;28;19972;-75
2023/06/29 00:57:35;;;;;;;;;;;;;;;14.94;100.00;95955.09;5027508;28;19929;-75
2023/06/29 01:00:05;;;;;;;;;;;;;;;14.86;100.00;95957.47;5027974;28;19936;-75
2023/06/29 01:02:31;;;;;;;;;;;;;;;14.77;100.00;95948.56;5029235;28;19929;-75
2023/06/29 01:04:58;;;;;;;;;;;;;;;14.79;100.00;95946.66;5023499;28;19976;-75
2023/06/29 01:07:27;;;;;;;;;;;;;;;14.79;100.00;95948.44;5024979;28;19925;-76
2023/06/29 01:09:54;;;;;;;;;;;;;;;14.66;100.00;95946.78;5028538;28;20053;-76
2023/06/29 01:12:21;;;;;;;;;;;;;;;14.63;100.00;95943.56;5031582;28;19929;-76
2023/06/29 01:14:49;;;;;;;;;;;;;;;14.47;100.00;95942.09;5025510;28;19937;-75
2023/06/29 01:17:16;;;;;;;;;;;;;;;14.36;100.00;95941.25;5030494;28;19929;-76
2023/06/29 01:19:43;;;;;;;;;;;;;;;14.37;100.00;95940.31;5027319;28;19933;-75
2023/06/29 01:22:13;;;;;;;;;;;;;;;14.24;100.00;95933.41;5029847;28;20028;-76
2023/06/29 01:24:41;;;;;;;;;;;;;;;14.15;100.00;95931.47;5020827;28;19929;-76
2023/06/29 01:27:07;;;;;;;;;;;;;;;14.13;100.00;95922.97;5025695;28;19983;-76
2023/06/29 01:29:34;;;;;;;;;;;;;;;14.06;100.00;95918.34;5025223;28;19933;-76
2023/06/29 01:32:03;;;;;;;;;;;;;;;13.94;100.00;95928.72;5029951;28;19929;-75
2023/06/29 01:34:29;;;;;;;;;;;;;;;13.94;100.00;95923.50;5027714;28;19925;-75
2023/06/29 01:37:01;;;;;;;;;;;;;;;13.91;100.00;95926.34;5031406;28;20015;-75
2023/06/29 01:39:30;;;;;;;;;;;;;;;13.96;100.00;95923.38;5030714;28;19929;-74
2023/06/29 01:41:58;;;;;;;;;;;;;;;14.01;100.00;95924.69;5029160;28;20221;-74
2023/06/29 01:44:24;;;;;;;;;;;;;;;14.03;100.00;95927.19;5026073;28;19982;-74
2023/06/29 01:46:51;;;;;;;;;;;;;;;14.03;100.00;95919.38;5031384;28;20331;-73
2023/06/29 01:49:18;;;;;;;;;;;;;;;14.08;100.00;95919.03;5030680;28;19929;-74
2023/06/29 01:51:44;;;;;;;;;;;;;;;14.08;100.00;95908.63;5026540;28;19929;-73
2023/06/29 01:54:10;;;;;;;;;;;;;;;14.02;100.00;95909.91;5022412;28;20423;-73
2023/06/29 01:56:37;;;;;;;;;;;;;;;13.93;100.00;95901.00;5027927;28;19936;-74
2023/06/29 01:59:04;;;;;;;;;;;;;;;13.84;100.00;95899.09;5024424;28;19929;-74
2023/06/29 02:01:31;;;;;;;;;;;;;;;13.75;100.00;95900.56;5025457;28;19925;-74
2023/06/29 02:03:57;;;;;;;;;;;;;;;13.75;100.00;95900.56;5025528;28;19929;-74
2023/06/29 02:06:23;;;;;;;;;;;;;;;13.77;100.00;95903.09;5025821;28;19929;-73
2023/06/29 02:08:50;;;;;;;;;;;;;;;13.83;100.00;95909.59;5028654;28;20342;-74
2023/06/29 02:11:16;;;;;;;;;;;;;;;13.83;100.00;95902.63;5026529;28;19983;-74
2023/06/29 02:13:42;;;;;;;;;;;;;;;13.90;100.00;95906.41;5027444;28;19980;-74
2023/06/29 02:16:10;;;;;;;;;;;;;;;13.86;100.00;95898.97;5029132;28;19971;-74
2023/06/29 02:18:36;;;;;;;;;;;;;;;13.90;100.00;95903.00;5027721;28;20353;-73
2023/06/29 02:21:02;;;;;;;;;;;;;;;13.95;100.00;95900.91;5028321;28;19929;-74
2023/06/29 02:23:28;;;;;;;;;;;;;;;14.03;100.00;95894.16;5019866;28;19929;-74
2023/06/29 02:25:55;;;;;;;;;;;;;;;14.06;100.00;95890.50;5028327;28;19932;-74
2023/06/29 02:28:21;;;;;;;;;;;;;;;14.17;100.00;95900.97;5025398;28;19932;-74
2023/06/29 02:30:47;;;;;;;;;;;;;;;14.24;100.00;95896.13;5022540;28;20362;-74
2023/06/29 02:33:15;;;;;;;;;;;;;;;14.32;100.00;95895.53;5025674;28;19930;-74
2023/06/29 02:35:41;;;;;;;;;;;;;;;14.33;100.00;95895.41;5026658;28;19932;-74
2023/06/29 02:38:07;;;;;;;;;;;;;;;14.29;100.00;95899.19;5031092;28;19985;-74
2023/06/29 02:40:34;;;;;;;;;;;;;;;14.28;100.00;95889.72;5025895;28;20458;-74
2023/06/29 02:43:00;;;;;;;;;;;;;;;14.20;100.00;95889.47;5028319;28;20339;-74
2023/06/29 02:45:26;;;;;;;;;;;;;;;14.15;100.00;95892.41;5028278;28;19933;-74
2023/06/29 02:47:52;;;;;;;;;;;;;;;13.94;100.00;95891.41;5028244;28;19937;-74
2023/06/29 02:50:20;;;;;;;;;;;;;;;13.77;100.00;95890.88;5022719;28;19973;-74
2023/06/29 02:52:46;;;;;;;;;;;;;;;13.77;100.00;95892.66;5023029;28;20387;-74
2023/06/29 02:55:13;;;;;;;;;;;;;;;13.70;100.00;95887.06;5021179;28;19953;-74
2023/06/29 02:57:39;;;;;;;;;;;;;;;13.66;100.00;95890.84;5029146;28;20338;-74
2023/06/29 03:00:08;;;;;;;;;;;;;;;13.58;100.00;95898.38;5021958;28;19979;-75
2023/06/29 03:02:34;;;;;;;;;;;;;;;13.54;100.00;95889.16;5024854;28;19932;-74
2023/06/29 03:05:00;;;;;;;;;;;;;;;13.54;100.00;95892.56;5025907;28;19971;-74
2023/06/29 03:07:28;;;;;;;;;;;;;;;13.55;100.00;95893.41;5026709;28;20399;-75
2023/06/29 03:09:54;;;;;;;;;;;;;;;13.65;100.00;95899.59;5030327;28;19925;-71
2023/06/29 03:12:21;;;;;;;;;;;;;;;13.71;100.00;95899.13;5027922;28;19979;-71
2023/06/29 03:14:48;;;;;;;;;;;;;;;13.63;100.00;95891.06;5027427;28;20387;-71
2023/06/29 03:17:14;;;;;;;;;;;;;;;13.46;100.00;95892.31;5020769;28;19929;-76
2023/06/29 03:19:40;;;;;;;;;;;;;;;13.31;100.00;95889.03;5028677;28;19948;-75
2023/06/29 03:22:07;;;;;;;;;;;;;;;13.23;100.00;95886.13;5023856;28;20096;-75
2023/06/29 03:24:34;;;;;;;;;;;;;;;13.21;100.00;95893.19;5026918;28;19979;-75
2023/06/29 03:27:00;;;;;;;;;;;;;;;13.05;100.00;95895.22;5024376;28;19932;-75
2023/06/29 03:29:27;;;;;;;;;;;;;;;13.02;100.00;95890.25;5022668;28;20406;-75
2023/06/29 03:31:53;;;;;;;;;;;;;;;13.08;100.00;95895.00;5028220;28;19929;-75
2023/06/29 03:34:19;;;;;;;;;;;;;;;13.10;100.00;95890.53;5024052;28;20398;-75
2023/06/29 03:36:46;;;;;;;;;;;;;;;13.08;100.00;95887.19;5029306;28;19929;-75
2023/06/29 03:39:12;;;;;;;;;;;;;;;13.02;100.00;95887.66;5030278;28;19930;-75
2023/06/29 03:41:40;;;;;;;;;;;;;;;12.87;100.00;95879.16;5027957;28;19934;-75
2023/06/29 03:44:06;;;;;;;;;;;;;;;12.87;100.00;95886.97;5029546;28;20423;-75
2023/06/29 03:46:32;;;;;;;;;;;;;;;12.98;100.00;95881.84;5031621;28;20002;-75
2023/06/29 03:48:59;;;;;;;;;;;;;;;12.95;100.00;95878.63;5032386;28;19925;-75
2023/06/29 03:51:25;;;;;;;;;;;;;;;13.04;100.00;95878.78;5032089;28;20008;-75
2023/06/29 03:53:51;;;;;;;;;;;;;;;13.07;100.00;95872.53;5029516;28;19932;-75
2023/06/29 03:56:18;;;;;;;;;;;;;;;13.06;100.00;95865.69;5025278;28;19975;-75
2023/06/29 03:58:45;;;;;;;;;;;;;;;13.05;100.00;95867.47;5030630;28;19925;-75
2023/06/29 04:01:11;;;;;;;;;;;;;;;12.99;100.00;95867.06;5022917;28;19929;-75
2023/06/29 04:03:38;;;;;;;;;;;;;;;12.99;100.00;95864.47;5032406;28;19929;-75
2023/06/29 04:06:04;;;;;;;;;;;;;;;13.09;100.00;95870.69;5031990;28;19925;-75
2023/06/29 04:08:32;;;;;;;;;;;;;;;13.03;100.00;95871.09;5026440;28;19971;-75
2023/06/29 04:10:58;;;;;;;;;;;;;;;12.95;100.00;95874.25;5031940;28;19979;-76
2023/06/29 04:13:25;;;;;;;;;;;;;;;12.96;100.00;95870.69;5026947;28;19925;-77
2023/06/29 04:15:53;;;;;;;;;;;;;;;12.92;100.00;95871.84;5028997;28;20422;-76
2023/06/29 04:18:19;;;;;;;;;;;;;;;13.16;100.00;95871.03;5033095;28;19936;-76
2023/06/29 04:20:45;;;;;;;;;;;;;;;13.36;100.00;95861.84;5034811;28;20346;-76
2023/06/29 04:23:14;;;;;;;;;;;;;;;13.51;100.00;95863.34;5027903;28;19933;-75
2023/06/29 04:25:42;;;;;;;;;;;;;;;13.62;100.00;95858.19;5033265;28;19929;-76
2023/06/29 04:28:08;;;;;;;;;;;;;;;13.70;100.00;95862.81;5023285;28;19932;-76
2023/06/29 04:30:36;;;;;;;;;;;;;;;13.95;100.00;95867.06;5029818;28;19925;-76
2023/06/29 04:33:09;;;;;;;;;;;;;;;13.96;100.00;95856.50;5026655;28;19936;-76
2023/06/29 04:35:36;;;;;;;;;;;;;;;13.97;100.00;95850.34;5031678;28;19925;-76
2023/06/29 04:38:02;;;;;;;;;;;;;;;13.77;100.00;95848.41;5027609;28;20048;-77
2023/06/29 04:40:28;;;;;;;;;;;;;;;13.74;100.00;95849.47;5031881;28;19986;-76
2023/06/29 04:42:55;;;;;;;;;;;;;;;13.72;100.00;95859.19;5028389;28;19932;-76
2023/06/29 04:45:21;;;;;;;;;;;;;;;13.77;100.00;95854.44;5015028;28;19925;-77
2023/06/29 04:47:49;;;;;;;;;;;;;;;13.86;100.00;95855.53;5027599;28;19936;-76
2023/06/29 04:50:25;;;;;;;;;;;;;;;13.99;100.00;95855.47;5032431;28;19933;-76
2023/06/29 04:52:51;;;;;;;;;;;;;;;14.12;100.00;95852.75;5030791;28;19971;-76
2023/06/29 04:55:18;;;;;;;;;;;;;;;14.20;100.00;95853.84;5027348;28;19925;-76
2023/06/29 04:57:44;;;;;;;;;;;;;;;14.21;100.00;95854.66;5027197;28;19929;-76
2023/06/29 05:00:11;;;;;;;;;;;;;;;14.12;100.00;95852.75;5021967;28;19933;-76
2023/06/29 05:02:38;;;;;;;;;;;;;;;14.25;100.00;95854.31;5030735;28;20304;-76
2023/06/29 05:05:05;;;;;;;;;;;;;;;14.42;100.00;95852.19;5022653;28;20019;-76
2023/06/29 05:07:32;;;;;;;;;;;;;;;14.56;100.00;95848.56;5026794;28;20392;-76
2023/06/29 05:09:59;;;;;;;;;;;;;;;14.67;100.00;95856.38;5028842;28;19948;-75
2023/06/29 05:12:25;;;;;;;;;;;;;;;14.72;100.00;95857.69;5029180;28;20008;-75
2023/06/29 05:14:52;;;;;;;;;;;;;;;14.80;100.00;95853.66;5031797;28;19929;-75
2023/06/29 05:17:18;;;;;;;;;;;;;;;14.79;100.00;95855.41;5032025;28;19929;-75
2023/06/29 05:19:44;;;;;;;;;;;;;;;14.92;100.00;95860.50;5027907;28;20016;-75
2023/06/29 05:22:11;;;;;;;;;;;;;;;14.81;100.00;95861.34;5031745;28;20358;-75
2023/06/29 05:24:38;;;;;;;;;;;;;;;14.92;100.00;95861.34;5030138;28;19937;-75
2023/06/29 05:27:05;;;;;;;;;;;;;;;14.90;100.00;95854.56;5020716;28;19972;-74
2023/06/29 05:29:31;;;;;;;;;;;;;;;14.99;100.00;95856.47;5022892;28;19933;-75
2023/06/29 05:31:58;;;;;;;;;;;;;;;15.28;100.00;95858.53;5031417;28;19952;-75
2023/06/29 05:34:24;;;;;;;;;;;;;;;15.43;100.00;95854.69;5024220;28;19987;-75
2023/06/29 05:36:50;;;;;;;;;;;;;;;15.60;100.00;95850.72;5028191;28;19929;-75
2023/06/29 05:39:16;;;;;;;;;;;;;;;15.91;100.00;95833.41;5025954;28;20310;-75
2023/06/29 05:41:44;;;;;;;;;;;;;;;15.86;100.00;95840.75;5031239;28;19941;-75
2023/06/29 05:44:10;;;;;;;;;;;;;;;16.03;100.00;95837.59;5028726;28;19929;-75
2023/06/29 05:46:37;;;;;;;;;;;;;;;16.34;100.00;95845.47;5028401;28;19940;-75
2023/06/29 05:49:03;;;;;;;;;;;;;;;16.47;100.00;95837.44;5030633;28;20307;-75
2023/06/29 05:51:30;;;;;;;;;;;;;;;16.65;100.00;95839.28;5030423;28;20281;-76
2023/06/29 05:53:56;;;;;;;;;;;;;;;16.83;100.00;95828.22;5026844;28;20276;-76
2023/06/29 05:56:22;;;;;;;;;;;;;;;17.18;100.00;95830.38;5030694;28;19929;-77
2023/06/29 05:58:50;;;;;;;;;;;;;;;17.31;100.00;95828.31;5019916;28;19925;-76
2023/06/29 06:01:17;;;;;;;;;;;;;;;17.39;100.00;95828.47;5028400;28;19929;-76
2023/06/29 06:03:43;;;;;;;;;;;;;;;17.29;100.00;95832.88;5022140;28;19941;-76
2023/06/29 06:06:10;;;;;;;;;;;;;;;17.10;100.00;95830.22;5029723;28;19991;-75
2023/06/29 06:08:36;;;;;;;;;;;;;;;17.19;100.00;95826.78;5023049;28;19929;-75
2023/06/29 06:11:02;;;;;;;;;;;;;;;17.31;100.00;95825.69;5028988;28;19936;-76
2023/06/29 06:13:28;;;;;;;;;;;;;;;17.22;100.00;95834.38;5022500;28;19929;-76
2023/06/29 06:15:56;;;;;;;;;;;;;;;17.44;100.00;95838.53;5027358;28;20403;-76
2023/06/29 06:18:22;;;;;;;;;;;;;;;17.74;100.00;95832.34;5021028;28;19932;-76
2023/06/29 06:20:49;;;;;;;;;;;;;;;17.97;100.00;95832.06;5029436;28;19925;-75
2023/06/29 06:23:15;;;;;;;;;;;;;;;18.13;100.00;95830.53;5025364;28;19925;-71
2023/06/29 06:25:41;;;;;;;;;;;;;;;18.21;100.00;95829.81;5028559;28;19929;-71
2023/06/29 06:28:08;;;;;;;;;;;;;;;18.17;100.00;95828.44;5027029;28;19929;-71
2023/06/29 06:30:34;;;;;;;;;;;;;;;18.22;100.00;95830.66;5024336;28;19929;-72
2023/06/29 06:33:02;;;;;;;;;;;;;;;18.37;98.00;95821.34;5030647;28;19926;-72
2023/06/29 06:35:28;;;;;;;;;;;;;;;18.47;98.07;95823.97;5025948;28;20007;-71
2023/06/29 06:37:55;;;;;;;;;;;;;;;18.73;97.63;95829.41;5030331;28;19929;-71
2023/06/29 06:40:21;;;;;;;;;;;;;;;18.76;95.21;95816.81;5026579;28;19937;-70
2023/06/29 06:42:47;;;;;;;;;;;;;;;18.98;90.39;95823.44;5029500;28;20180;-75
2023/06/29 06:45:14;;;;;;;;;;;;;;;19.03;88.91;95826.47;5025243;28;20442;-71
2023/06/29 06:47:40;;;;;;;;;;;;;;;19.08;86.82;95815.53;5020372;28;20008;-72
2023/06/29 06:50:09;;;;;;;;;;;;;;;19.34;86.05;95819.09;5026727;28;19998;-72
2023/06/29 06:52:35;;;;;;;;;;;;;;;19.50;87.05;95822.84;5028712;28;19925;-72
2023/06/29 06:55:04;;;;;;;;;;;;;;;19.73;77.74;95818.84;5026149;28;19983;-72
2023/06/29 06:57:30;;;;;;;;;;;;;;;19.76;77.74;95812.44;5029063;28;20291;-72
2023/06/29 06:59:56;;;;;;;;;;;;;;;19.89;76.86;95812.88;5025088;28;20394;-71
2023/06/29 07:02:23;;;;;;;;;;;;;;;20.19;75.60;95821.31;5018297;28;19929;-71
2023/06/29 07:04:49;;;;;;;;;;;;;;;20.41;74.74;95820.78;5019683;28;19925;-72
2023/06/29 07:07:17;;;;;;;;;;;;;;;20.65;74.00;95819.28;5018346;28;20310;-72
2023/06/29 07:09:43;;;;;;;;;;;;;;;20.90;70.69;95818.41;5025768;28;19983;-73
2023/06/29 07:12:10;;;;;;;;;;;;;;;21.09;70.47;95806.78;5029134;28;19929;-72
2023/06/29 07:14:36;;;;;;;;;;;;;;;21.18;68.35;95812.91;5022950;28;19983;-72
2023/06/29 07:17:03;;;;;;;;;;;;;;;21.07;69.32;95818.47;5030944;28;19925;-73
2023/06/29 07:19:29;;;;;;;;;;;;;;;21.31;70.13;95809.81;5032492;28;19978;-72
2023/06/29 07:21:55;;;;;;;;;;;;;;;21.51;69.24;95808.56;5029808;28;19968;-72
2023/06/29 07:24:23;;;;;;;;;;;;;;;21.53;67.09;95803.13;5029019;28;19956;-72
2023/06/29 07:26:50;;;;;;;;;;;;;;;21.44;68.10;95800.50;5032880;28;19932;-72
2023/06/29 07:29:16;;;;;;;;;;;;;;;21.30;68.44;95806.34;5030865;28;20396;-72
2023/06/29 07:31:42;;;;;;;;;;;;;;;21.28;66.87;95805.69;5034054;28;19941;-72
2023/06/29 07:34:09;;;;;;;;;;;;;;;21.36;68.11;95803.13;5029959;28;19930;-73
2023/06/29 07:36:35;;;;;;;;;;;;;;;21.62;66.98;95800.34;5033846;28;19932;-73
2023/06/29 07:39:02;;;;;;;;;;;;;;;21.71;64.43;95795.91;5033779;28;19931;-73
2023/06/29 07:41:31;;;;;;;;;;;;;;;21.67;66.44;95795.41;5033179;28;19929;-73
2023/06/29 07:43:58;;;;;;;;;;;;;;;21.61;68.08;95793.41;5029115;28;19936;-72
2023/06/29 07:46:24;;;;;;;;;;;;;;;21.65;69.42;95794.72;5031019;28;20320;-72
2023/06/29 07:48:52;;;;;;;;;;;;;;;21.63;69.14;95802.00;5034043;28;20012;-72
2023/06/29 07:51:18;;;;;;;;;;;;;;;21.50;67.65;95799.00;5028331;28;20398;-72
2023/06/29 07:53:45;;;;;;;;;;;;;;;21.46;68.85;95792.41;5018584;28;19929;-71
2023/06/29 07:56:11;;;;;;;;;;;;;;;21.43;67.50;95801.47;5032527;28;19929;-72
2023/06/29 07:58:39;;;;;;;;;;;;;;;21.55;65.48;95793.25;5027157;28;19933;-72
2023/06/29 08:01:05;;;;;;;;;;;;;;;21.47;65.66;95791.44;5032002;28;19925;-71
2023/06/29 08:03:32;;;;;;;;;;;;;;;21.46;65.81;95790.59;5026529;28;19979;-71
2023/06/29 08:05:59;;;;;;;;;;;;;;;21.57;63.75;95799.19;5032543;28;19932;-73
2023/06/29 08:08:28;;;;;;;;;;;;;;;21.68;62.13;95786.50;5031859;28;20398;-72
2023/06/29 08:10:55;;;;;;;;;;;;;;;21.81;61.07;95791.28;5032375;28;19925;-73
2023/06/29 08:13:21;;;;;;;;;;;;;;;22.08;60.58;95786.66;5033344;28;19979;-70
2023/06/29 08:15:49;;;;;;;;;;;;;;;22.16;58.57;95786.66;5032587;28;19929;-72
2023/06/29 08:18:15;;;;;;;;;;;;;;;22.26;57.47;95792.59;5033478;28;19933;-73
2023/06/29 08:20:41;;;;;;;;;;;;;;;22.60;57.15;95789.69;5028365;28;19971;-74
2023/06/29 08:23:07;;;;;;;;;;;;;;;23.17;54.52;95783.34;5032823;28;20126;-73
2023/06/29 08:25:34;;;;;;;;;;;;;;;23.57;53.70;95787.56;5028830;28;19926;-72
2023/06/29 08:28:00;;;;;;;;;;;;;;;23.67;50.92;95777.59;5032897;28;19925;-70
2023/06/29 08:30:26;;;;;;;;;;;;;;;24.03;52.03;95776.13;5030194;28;20383;-71
2023/06/29 08:32:54;;;;;;;;;;;;;;;24.15;50.03;95780.81;5032871;28;19932;-71
2023/06/29 08:35:20;;;;;;;;;;;;;;;24.18;49.99;95784.09;5029543;28;19932;-73
2023/06/29 08:37:46;;;;;;;;;;;;;;;24.54;48.83;95776.31;5032557;28;19929;-71
2023/06/29 08:40:14;;;;;;;;;;;;;;;24.48;49.15;95782.34;5028918;28;20618;-72
2023/06/29 08:42:40;;;;;;;;;;;;;;;24.34;49.20;95771.53;5024482;28;19978;-71
2023/06/29 08:45:07;;;;;;;;;;;;;;;24.47;49.31;95775.38;5030839;28;19929;-71
2023/06/29 08:47:34;;;;;;;;;;;;;;;24.98;50.26;95770.16;5031309;28;19932;-71
2023/06/29 08:50:04;;;;;;;;;;;;;;;24.95;48.06;95773.16;5028801;28;19975;-71
2023/06/29 08:52:32;;;;;;;;;;;;;;;24.77;48.41;95774.41;5031230;28;19925;-71
2023/06/29 08:54:58;;;;;;;;;;;;;;;24.60;47.03;95771.09;5028371;28;19925;-71
2023/06/29 08:57:26;;;;;;;;;;;;;;;24.58;47.27;95767.84;5031550;28;19932;-71
2023/06/29 08:59:52;;;;;;;;;;;;;;;24.83;45.11;95771.00;5024715;28;19929;-71
2023/06/29 09:02:19;;;;;;;;;;;;;;;24.46;46.22;95766.63;5027196;28;19925;-71
2023/06/29 09:04:45;;;;;;;;;;;;;;;24.45;45.90;95757.06;5031442;28;19987;-72
2023/06/29 09:07:14;;;;;;;;;;;;;;;24.54;47.30;95769.19;5028642;28;19979;-72
2023/06/29 09:09:40;;;;;;;;;;;;;;;24.47;47.00;95759.50;5031146;28;19925;-72
2023/06/29 09:12:07;;;;;;;;;;;;;;;24.08;47.01;95761.38;5029365;28;19932;-72
2023/06/29 09:14:38;;;;;;;;;;;;;;;24.49;47.04;95762.81;5031870;28;19971;-71
2023/06/29 09:17:12;;;;;;;;;;;;;;;24.66;47.15;95764.28;5031416;28;19951;-72
2023/06/29 09:19:38;;;;;;;;;;;;;;;24.91;46.94;95766.59;5031135;28;20368;-74
2023/06/29 09:22:05;;;;;;;;;;;;;;;24.85;45.40;95754.94;5031913;28;19995;-72
2023/06/29 09:24:34;;;;;;;;;;;;;;;24.88;46.01;95757.19;5026469;28;19929;-77
2023/06/29 09:27:00;;;;;;;;;;;;;;;25.12;46.89;95752.63;5026820;28;20410;-75
2023/06/29 09:29:26;;;;;;;;;;;;;;;25.34;46.30;95749.78;5024214;28;19925;-75
2023/06/29 09:31:56;;;;;;;;;;;;;;;25.32;45.11;95757.09;5031549;28;19996;-75
2023/06/29 09:34:25;;;;;;;;;;;;;;;25.41;45.66;95752.53;5031770;28;19924;-75
2023/06/29 09:36:52;;;;;;;;;;;;;;;24.73;46.87;95753.75;5028409;28;20024;-75
2023/06/29 09:39:18;;;;;;;;;;;;;;;24.71;47.05;95756.59;5029992;28;19932;-74
2023/06/29 09:41:46;;;;;;;;;;;;;;;25.26;47.25;95755.22;5029089;28;19968;-75
2023/06/29 09:44:13;;;;;;;;;;;;;;;25.49;49.60;95755.03;5026549;28;19968;-75
2023/06/29 09:46:41;;;;;;;;;;;;;;;25.29;46.49;95749.56;5029946;28;20357;-75
2023/06/29 09:49:08;;;;;;;;;;;;;;;25.44;46.12;95746.84;5026357;28;19983;-75
2023/06/29 09:51:34;;;;;;;;;;;;;;;25.49;44.50;95755.03;5030098;28;20422;-75
2023/06/29 09:54:01;;;;;;;;;;;;;;;25.53;44.39;95740.38;5023149;28;19929;-75
2023/06/29 09:56:28;;;;;;;;;;;;;;;25.60;44.66;95737.81;5030539;28;19936;-76
2023/06/29 09:58:56;;;;;;;;;;;;;;;25.63;45.62;95732.13;5031255;28;20015;-75
2023/06/29 10:01:24;;;;;;;;;;;;;;;26.24;44.40;95735.06;5023006;28;19979;-75
2023/06/29 10:03:50;;;;;;;;;;;;;;;26.31;45.77;95738.56;5028127;28;19926;-75
2023/06/29 10:06:20;;;;;;;;;;;;;;;26.07;44.05;95728.44;5023490;28;20415;-76
2023/06/29 10:08:50;;;;;;;;;;;;;;;26.21;43.56;95731.97;5025653;28;19932;-76
2023/06/29 10:11:17;;;;;;;;;;;;;;;26.73;44.39;95728.81;5031037;28;19929;-75
2023/06/29 10:13:46;;;;;;;;;;;;;;;26.71;42.42;95733.50;5024703;28;20353;-75
2023/06/29 10:16:15;;;;;;;;;;;;;;;27.14;42.93;95729.78;5026480;28;19951;-75
2023/06/29 10:18:44;;;;;;;;;;;;;;;27.24;41.38;95725.72;5023234;28;19929;-75
2023/06/29 10:21:11;;;;;;;;;;;;;;;27.36;40.94;95723.31;5025561;28;19925;-74
2023/06/29 10:23:39;;;;;;;;;;;;;;;27.11;41.75;95723.06;5030327;28;19929;-75
2023/06/29 10:26:05;;;;;;;;;;;;;;;27.35;44.79;95718.19;5029469;28;19925;-75
2023/06/29 10:28:32;;;;;;;;;;;;;;;27.30;42.73;95720.66;5030036;28;20441;-75
2023/06/29 10:30:59;;;;;;;;;;;;;;;27.33;44.91;95714.91;5028817;28;19929;-75
2023/06/29 10:33:27;;;;;;;;;;;;;;;27.10;44.03;95716.06;5022367;28;19937;-75
2023/06/29 10:35:55;;;;;;;;;;;;;;;26.99;44.56;95713.97;5030379;28;19925;-75
2023/06/29 10:38:21;;;;;;;;;;;;;;;27.13;43.85;95704.25;5028599;28;19924;-75
2023/06/29 10:40:48;;;;;;;;;;;;;;;27.25;44.47;95703.47;5023107;28;20350;-75
2023/06/29 10:43:15;;;;;;;;;;;;;;;27.35;44.27;95703.06;5031399;28;19971;-76
2023/06/29 10:45:41;;;;;;;;;;;;;;;27.43;41.41;95705.50;5030527;28;20015;-75
2023/06/29 10:48:09;;;;;;;;;;;;;;;27.49;43.57;95695.91;5025514;28;19964;-76
2023/06/29 10:50:37;;;;;;;;;;;;;;;27.69;42.88;95699.38;5025556;28;19929;-75
2023/06/29 10:53:05;;;;;;;;;;;;;;;27.56;41.03;95698.59;5030732;28;19925;-76
2023/06/29 10:55:38;;;;;;;;;;;;;;;27.67;40.53;95693.47;5024692;28;20292;-75
2023/06/29 10:58:07;;;;;;;;;;;;;;;27.46;41.26;95693.66;5029574;28;19930;-75
2023/06/29 11:00:33;;;;;;;;;;;;;;;27.49;40.52;95687.94;5026432;28;20403;-75
2023/06/29 11:03:00;;;;;;;;;;;;;;;27.06;42.01;95693.56;5034894;28;19936;-76
2023/06/29 11:05:28;;;;;;;;;;;;;;;27.11;42.55;95685.00;5030614;28;20208;-76
2023/06/29 11:07:56;;;;;;;;;;;;;;;27.03;41.70;95692.13;5034778;28;19940;-75
2023/06/29 11:10:23;;;;;;;;;;;;;;;27.42;42.23;95677.28;5034692;28;19929;-75
2023/06/29 11:12:50;;;;;;;;;;;;;;;27.79;43.19;95690.22;5027295;28;19925;-76
2023/06/29 11:15:17;;;;;;;;;;;;;;;27.79;40.30;95680.41;5033864;28;19925;-76
2023/06/29 11:17:44;;;;;;;;;;;;;;;27.99;42.13;95681.19;5032196;28;19925;-75
2023/06/29 11:20:13;;;;;;;;;;;;;;;28.12;41.84;95679.53;5026799;28;20320;-73
2023/06/29 11:22:39;;;;;;;;;;;;;;;28.23;41.53;95678.91;5033209;28;19936;-75
2023/06/29 11:25:08;;;;;;;;;;;;;;;28.23;40.67;95676.25;5026859;28;19929;-73
2023/06/29 11:27:34;;;;;;;;;;;;;;;27.93;39.54;95675.88;5031838;28;20027;-74
2023/06/29 11:30:01;;;;;;;;;;;;;;;28.09;40.30;95683.44;5030039;28;19929;-73
2023/06/29 11:32:30;;;;;;;;;;;;;;;27.80;40.06;95678.53;5033776;28;20399;-74
2023/06/29 11:34:57;;;;;;;;;;;;;;;27.35;40.43;95670.31;5033864;28;19929;-75
2023/06/29 11:37:23;;;;;;;;;;;;;;;26.90;41.64;95684.13;5033737;28;20012;-75
2023/06/29 11:39:50;;;;;;;;;;;;;;;26.40;42.67;95680.00;5027786;28;20003;-73
2023/06/29 11:42:21;;;;;;;;;;;;;;;26.57;44.09;95681.34;5031998;28;20295;-73
2023/06/29 11:44:48;;;;;;;;;;;;;;;26.76;43.88;95677.94;5033776;28;19936;-73
2023/06/29 11:47:15;;;;;;;;;;;;;;;26.44;43.81;95684.72;5033820;28;19958;-75
2023/06/29 11:49:41;;;;;;;;;;;;;;;26.38;46.58;95679.38;5034004;28;19929;-73
2023/06/29 11:52:08;;;;;;;;;;;;;;;25.54;49.83;95681.03;5030535;28;19925;-73
2023/06/29 11:54:34;;;;;;;;;;;;;;;25.34;51.73;95677.41;5029705;28;19947;-73
2023/06/29 11:57:01;;;;;;;;;;;;;;;25.18;52.83;95667.88;5028545;28;19929;-73
2023/06/29 11:59:28;;;;;;;;;;;;;;;24.83;53.30;95672.16;5023774;28;19929;-74
2023/06/29 12:01:54;;;;;;;;;;;;;;;24.95;54.11;95673.31;5032227;28;20299;-73
2023/06/29 12:04:21;;;;;;;;;;;;;;;25.10;54.65;95673.28;5030138;28;19929;-73
2023/06/29 12:06:50;;;;;;;;;;;;;;;25.12;54.42;95679.22;5032935;28;19936;-74
2023/06/29 12:09:17;;;;;;;;;;;;;;;25.01;55.00;95682.34;5030831;28;19929;-74
2023/06/29 12:11:43;;;;;;;;;;;;;;;24.87;55.72;95687.50;5032540;28;20338;-74
2023/06/29 12:14:10;;;;;;;;;;;;;;;25.15;53.80;95686.00;5027596;28;19971;-74
2023/06/29 12:16:39;;;;;;;;;;;;;;;25.18;54.70;95680.28;5025246;28;20517;-73
2023/06/29 12:19:09;;;;;;;;;;;;;;;25.31;55.77;95680.44;5029985;28;20471;-73
2023/06/29 12:21:36;;;;;;;;;;;;;;;24.93;56.11;95680.63;5032470;28;19929;-73
2023/06/29 12:24:02;;;;;;;;;;;;;;;24.90;57.01;95677.53;5028096;28;19960;-73
2023/06/29 12:26:28;;;;;;;;;;;;;;;25.05;57.11;95680.97;5030783;28;19925;-73
2023/06/29 12:28:55;;;;;;;;;;;;;;;25.02;56.15;95681.34;5028307;28;19925;-74
2023/06/29 12:31:25;;;;;;;;;;;;;;;24.94;56.77;95678.81;5029363;28;19964;-74
2023/06/29 12:33:52;;;;;;;;;;;;;;;24.82;57.22;95666.06;5032671;28;20354;-73
2023/06/29 12:36:19;;;;;;;;;;;;;;;24.90;57.01;95680.19;5033129;28;20311;-73
2023/06/29 12:38:45;;;;;;;;;;;;;;;24.99;56.05;95677.25;5032040;28;19925;-74